createdAt,value
2022-09-21T00:00:21.045Z,7.10
2022-09-21T00:02:51.240Z,7.10
2022-09-21T00:05:21.939Z,7.10
2022-09-21T00:07:52.109Z,7.10
2022-09-21T00:10:25.399Z,6.90
2022-09-21T00:12:56.241Z,6.90
2022-09-21T00:15:26.821Z,6.90
2022-09-21T00:17:58.764Z,6.80
2022-09-21T00:20:30.302Z,6.80
2022-09-21T00:23:00.480Z,6.90
2022-09-21T00:25:33.186Z,6.90
2022-09-21T00:28:03.765Z,6.80
2022-09-21T00:30:34.113Z,6.80
2022-09-21T00:33:04.248Z,6.80
2022-09-21T00:35:34.383Z,6.80
2022-09-21T00:38:05.311Z,6.80
2022-09-21T00:40:38.066Z,6.80
2022-09-21T00:43:20.044Z,6.80
2022-09-21T00:45:53.121Z,6.80
2022-09-21T00:48:23.319Z,6.70
2022-09-21T00:50:57.468Z,6.70
2022-09-21T00:53:28.591Z,6.60
2022-09-21T00:56:03.986Z,6.60
2022-09-21T00:58:38.819Z,6.60
2022-09-21T01:01:08.789Z,6.50
2022-09-21T01:03:38.990Z,6.60
2022-09-21T01:06:09.533Z,6.50
2022-09-21T01:08:40.002Z,6.50
2022-09-21T01:11:37.233Z,6.50
2022-09-21T01:14:42.427Z,6.40
2022-09-21T01:17:21.591Z,6.40
2022-09-21T01:20:28.045Z,6.40
2022-09-21T01:23:15.985Z,6.30
2022-09-21T01:26:04.153Z,6.30
2022-09-21T01:29:09.469Z,6.40
2022-09-21T01:31:45.080Z,6.30
2022-09-21T01:34:22.220Z,6.30
2022-09-21T01:36:54.068Z,6.30
2022-09-21T01:39:26.539Z,6.20
2022-09-21T01:41:58.244Z,6.20
2022-09-21T01:44:34.731Z,6.30
2022-09-21T01:47:06.944Z,6.30
2022-09-21T01:49:42.671Z,6.30
2022-09-21T01:52:20.077Z,6.30
2022-09-21T01:54:54.404Z,6.30
2022-09-21T01:57:36.054Z,6.30
2022-09-21T02:00:11.277Z,6.20
2022-09-21T02:02:48.041Z,6.20
2022-09-21T02:05:20.967Z,6.20
2022-09-21T02:07:53.823Z,6.20
2022-09-21T02:10:28.734Z,6.20
2022-09-21T02:13:01.973Z,6.20
2022-09-21T02:15:48.998Z,6.20
2022-09-21T02:18:35.365Z,6.20
2022-09-21T02:21:11.795Z,6.20
2022-09-21T02:23:51.284Z,6.20
2022-09-21T02:26:30.231Z,6.20
2022-09-21T02:29:11.409Z,6.10
2022-09-21T02:31:52.638Z,6.00
2022-09-21T02:34:37.664Z,6.00
2022-09-21T02:37:15.060Z,6.00
2022-09-21T02:39:53.238Z,6.00
2022-09-21T02:42:28.260Z,5.90
2022-09-21T02:45:10.722Z,5.90
2022-09-21T02:47:53.447Z,5.80
2022-09-21T02:50:28.716Z,5.80
2022-09-21T02:53:00.468Z,5.90
2022-09-21T02:55:32.366Z,5.90
2022-09-21T02:58:06.306Z,5.90
2022-09-21T03:00:38.262Z,5.80
2022-09-21T03:03:22.206Z,5.80
2022-09-21T03:05:56.142Z,5.80
2022-09-21T03:08:26.301Z,5.80
2022-09-21T03:10:57.904Z,5.80
2022-09-21T03:13:28.512Z,5.80
2022-09-21T03:16:04.992Z,5.80
2022-09-21T03:18:37.903Z,5.80
2022-09-21T03:21:08.124Z,5.70
2022-09-21T03:23:38.267Z,5.80
2022-09-21T03:26:09.343Z,5.70
2022-09-21T03:28:39.574Z,5.70
2022-09-21T03:31:10.077Z,5.80
2022-09-21T03:33:42.996Z,5.80
2022-09-21T03:36:13.579Z,5.70
2022-09-21T03:38:44.008Z,5.70
2022-09-21T03:41:15.316Z,5.70
2022-09-21T03:43:45.388Z,5.70
2022-09-21T03:46:15.526Z,5.70
2022-09-21T03:48:50.775Z,5.70
2022-09-21T03:51:20.946Z,5.70
2022-09-21T03:53:51.049Z,5.70
2022-09-21T03:56:21.241Z,5.70
2022-09-21T03:58:51.379Z,5.70
2022-09-21T04:01:21.601Z,5.70
2022-09-21T04:03:54.481Z,5.80
2022-09-21T04:06:25.245Z,5.80
2022-09-21T04:08:56.350Z,5.90
2022-09-21T04:11:26.565Z,5.90
2022-09-21T04:13:57.219Z,5.80
2022-09-21T04:16:28.592Z,5.80
2022-09-21T04:19:01.603Z,5.80
2022-09-21T04:21:32.957Z,5.90
2022-09-21T04:24:04.280Z,5.90
2022-09-21T04:26:36.933Z,5.80
2022-09-21T04:29:07.369Z,5.80
2022-09-21T04:31:37.948Z,5.80
2022-09-21T04:34:12.396Z,5.80
2022-09-21T04:36:42.688Z,5.70
2022-09-21T04:39:12.740Z,5.70
2022-09-21T04:41:43.114Z,5.70
2022-09-21T04:44:13.192Z,5.60
2022-09-21T04:46:43.300Z,5.60
2022-09-21T04:49:16.201Z,5.70
2022-09-21T04:51:46.301Z,5.70
2022-09-21T04:54:16.809Z,5.70
2022-09-21T04:56:47.073Z,5.70
2022-09-21T04:59:17.132Z,5.70
2022-09-21T05:01:47.309Z,5.60
2022-09-21T05:04:20.201Z,5.50
2022-09-21T05:06:50.356Z,5.50
2022-09-21T05:09:32.918Z,5.50
2022-09-21T05:12:03.191Z,5.50
2022-09-21T05:14:33.392Z,5.50
2022-09-21T05:17:03.653Z,5.60
2022-09-21T05:19:36.372Z,5.60
2022-09-21T05:22:06.635Z,5.60
2022-09-21T05:24:36.893Z,5.60
2022-09-21T05:27:07.631Z,5.60
2022-09-21T05:29:38.940Z,5.60
2022-09-21T05:32:16.379Z,5.60
2022-09-21T05:35:03.939Z,5.70
2022-09-21T05:37:48.965Z,5.70
2022-09-21T05:40:20.864Z,5.70
2022-09-21T05:42:52.405Z,5.70
2022-09-21T05:45:24.585Z,5.70
2022-09-21T05:48:02.285Z,5.70
2022-09-21T05:50:56.115Z,5.80
2022-09-21T05:53:42.624Z,5.90
2022-09-21T05:56:24.992Z,5.90
2022-09-21T05:59:05.645Z,6.00
2022-09-21T06:01:54.485Z,6.00
2022-09-21T06:04:25.779Z,6.20
2022-09-21T06:06:58.522Z,6.30
2022-09-21T06:09:28.669Z,6.50
2022-09-21T06:11:59.888Z,6.60
2022-09-21T06:14:30.017Z,6.70
2022-09-21T06:17:00.189Z,6.70
2022-09-21T06:19:30.518Z,6.90
2022-09-21T06:22:03.349Z,7.00
2022-09-21T06:24:33.538Z,7.10
2022-09-21T06:27:07.011Z,7.20
2022-09-21T06:29:37.110Z,7.30
2022-09-21T06:32:08.101Z,7.40
2022-09-21T06:34:38.255Z,7.50
2022-09-21T06:37:10.955Z,7.60
2022-09-21T06:39:41.118Z,7.60
2022-09-21T06:42:11.423Z,7.70
2022-09-21T06:44:41.570Z,7.70
2022-09-21T06:47:11.647Z,7.80
2022-09-21T06:49:42.641Z,7.90
2022-09-21T06:52:15.644Z,8.00
2022-09-21T06:54:45.777Z,8.10
2022-09-21T06:57:15.983Z,8.30
2022-09-21T06:59:46.154Z,8.40
2022-09-21T07:02:16.939Z,8.50
2022-09-21T07:04:47.144Z,8.50
2022-09-21T07:07:19.796Z,8.70
2022-09-21T07:10:06.012Z,8.80
2022-09-21T07:12:39.414Z,9.00
2022-09-21T07:15:12.110Z,9.00
2022-09-21T07:17:50.039Z,9.10
2022-09-21T07:20:20.667Z,9.20
2022-09-21T07:22:53.615Z,9.30
2022-09-21T07:25:23.741Z,9.50
2022-09-21T07:27:53.823Z,9.50
2022-09-21T07:30:24.069Z,9.60
2022-09-21T07:32:54.236Z,9.70
2022-09-21T07:35:24.374Z,9.70
2022-09-21T07:37:57.626Z,9.70
2022-09-21T07:40:28.031Z,9.80
2022-09-21T07:43:02.452Z,9.80
2022-09-21T07:45:32.877Z,9.90
2022-09-21T07:48:06.589Z,9.90
2022-09-21T07:50:36.976Z,10.10
2022-09-21T07:53:09.742Z,10.10
2022-09-21T07:55:39.945Z,10.20
2022-09-21T07:58:22.551Z,10.50
2022-09-21T08:00:52.935Z,10.40
2022-09-21T08:03:23.316Z,10.50
2022-09-21T08:05:53.994Z,10.60
2022-09-21T08:08:26.806Z,10.70
2022-09-21T08:10:57.720Z,10.70
2022-09-21T08:13:27.986Z,10.70
2022-09-21T08:16:01.889Z,10.80
2022-09-21T08:18:32.852Z,10.80
2022-09-21T08:21:04.142Z,10.90
2022-09-21T08:23:40.724Z,10.90
2022-09-21T08:26:14.705Z,11.00
2022-09-21T08:28:45.047Z,11.10
2022-09-21T08:31:15.206Z,11.10
2022-09-21T08:33:46.240Z,11.20
2022-09-21T08:36:16.481Z,11.20
2022-09-21T08:38:50.011Z,11.30
2022-09-21T08:41:22.676Z,11.30
2022-09-21T08:43:57.884Z,11.40
2022-09-21T08:46:32.385Z,11.50
2022-09-21T08:49:07.180Z,11.60
2022-09-21T08:51:39.261Z,11.70
2022-09-21T08:54:23.422Z,11.80
2022-09-21T08:57:04.886Z,11.80
2022-09-21T08:59:37.082Z,11.90
2022-09-21T09:02:31.573Z,12.00
2022-09-21T09:05:10.304Z,12.10
2022-09-21T09:08:15.115Z,12.10
2022-09-21T09:11:01.635Z,12.20
2022-09-21T09:14:02.915Z,12.40
2022-09-21T09:16:39.874Z,12.60
2022-09-21T09:19:28.945Z,12.70
2022-09-21T09:21:59.685Z,12.70
2022-09-21T09:24:38.824Z,12.80
2022-09-21T09:27:22.332Z,12.80
2022-09-21T09:30:03.882Z,12.90
2022-09-21T09:32:44.192Z,13.00
2022-09-21T09:35:27.899Z,13.10
2022-09-21T09:38:03.889Z,13.20
2022-09-21T09:41:04.174Z,13.30
2022-09-21T09:43:55.945Z,13.30
2022-09-21T09:46:35.075Z,13.50
2022-09-21T09:49:30.391Z,13.70
2022-09-21T09:52:00.706Z,13.70
2022-09-21T09:54:33.700Z,13.70
2022-09-21T09:57:05.258Z,13.70
2022-09-21T09:59:43.239Z,13.80
2022-09-21T10:02:25.206Z,14.00
2022-09-21T10:05:06.075Z,14.10
2022-09-21T10:07:42.701Z,14.20
2022-09-21T10:10:36.674Z,14.30
2022-09-21T10:13:15.776Z,14.30
2022-09-21T10:15:53.917Z,14.40
2022-09-21T10:18:27.119Z,14.50
2022-09-21T10:21:00.685Z,14.40
2022-09-21T10:23:33.069Z,14.40
2022-09-21T10:26:11.278Z,14.40
2022-09-21T10:28:58.285Z,14.40
2022-09-21T10:31:32.320Z,14.30
2022-09-21T10:34:16.569Z,14.40
2022-09-21T10:36:54.833Z,14.50
2022-09-21T10:39:29.116Z,14.40
2022-09-21T10:42:09.778Z,14.50
2022-09-21T10:44:44.070Z,14.60
2022-09-21T10:47:26.983Z,14.80
2022-09-21T10:49:59.989Z,14.80
2022-09-21T10:52:37.547Z,14.90
2022-09-21T10:55:09.685Z,15.10
2022-09-21T10:57:46.129Z,15.00
2022-09-21T11:00:35.614Z,14.80
2022-09-21T11:03:41.771Z,14.60
2022-09-21T11:06:18.434Z,14.70
2022-09-21T11:08:53.624Z,14.90
2022-09-21T11:11:45.851Z,15.10
2022-09-21T11:14:33.172Z,15.40
2022-09-21T11:17:10.764Z,15.30
2022-09-21T11:19:51.904Z,15.10
2022-09-21T11:22:31.248Z,15.40
2022-09-21T11:25:11.277Z,15.30
2022-09-21T11:27:45.648Z,15.00
2022-09-21T11:30:18.879Z,15.00
2022-09-21T11:33:09.884Z,14.90
2022-09-21T11:35:58.312Z,14.90
2022-09-21T11:38:52.070Z,14.80
2022-09-21T11:41:48.731Z,14.80
2022-09-21T11:44:56.120Z,14.80
2022-09-21T11:47:56.336Z,14.90
2022-09-21T11:50:41.402Z,15.00
2022-09-21T11:53:37.304Z,15.20
2022-09-21T11:56:35.810Z,15.40
2022-09-21T11:59:25.821Z,15.30
2022-09-21T12:02:23.476Z,15.20
2022-09-21T12:05:00.784Z,15.10
2022-09-21T12:07:51.749Z,15.50
2022-09-21T12:10:46.227Z,15.70
2022-09-21T12:13:29.951Z,15.60
2022-09-21T12:16:08.173Z,15.70
2022-09-21T12:18:48.095Z,15.70
2022-09-21T12:21:24.511Z,15.60
2022-09-21T12:23:58.238Z,15.50
2022-09-21T12:26:37.384Z,15.40
2022-09-21T12:29:15.632Z,15.40
2022-09-21T12:32:01.554Z,15.70
2022-09-21T12:34:41.214Z,15.60
2022-09-21T12:37:17.598Z,15.70
2022-09-21T12:39:57.300Z,15.60
2022-09-21T12:42:41.286Z,15.50
2022-09-21T12:45:24.276Z,15.40
2022-09-21T12:48:01.574Z,15.50
2022-09-21T12:50:39.297Z,15.80
2022-09-21T12:53:11.720Z,15.70
2022-09-21T12:55:53.401Z,16.00
2022-09-21T12:58:51.424Z,16.30
2022-09-21T13:01:32.328Z,16.20
2022-09-21T13:04:28.531Z,16.10
2022-09-21T13:07:33.555Z,16.10
2022-09-21T13:10:14.488Z,15.90
2022-09-21T13:12:48.576Z,16.00
2022-09-21T13:15:28.031Z,16.20
2022-09-21T13:18:04.467Z,16.30
2022-09-21T13:20:41.320Z,16.30
2022-09-21T13:23:20.252Z,16.40
2022-09-21T13:25:53.435Z,16.40
2022-09-21T13:28:24.742Z,16.20
2022-09-21T13:31:43.897Z,16.20
2022-09-21T13:34:32.777Z,16.20
2022-09-21T13:37:33.323Z,16.40
2022-09-21T13:40:42.772Z,16.30
2022-09-21T13:43:47.315Z,16.10
2022-09-21T13:46:59.729Z,16.00
2022-09-21T13:49:42.395Z,16.30
2022-09-21T13:52:35.016Z,16.20
2022-09-21T13:55:09.435Z,16.60
2022-09-21T13:57:44.582Z,16.50
2022-09-21T14:00:40.419Z,16.30
2022-09-21T14:03:26.244Z,16.30
2022-09-21T14:05:58.832Z,16.40
2022-09-21T14:08:34.601Z,16.30
2022-09-21T14:11:09.116Z,16.50
2022-09-21T14:13:43.974Z,16.50
2022-09-21T14:17:00.812Z,16.60
2022-09-21T14:20:08.083Z,16.80
2022-09-21T14:22:45.953Z,16.80
2022-09-21T14:25:51.879Z,16.70
2022-09-21T14:28:36.643Z,16.50
2022-09-21T14:31:11.395Z,16.30
2022-09-21T14:33:50.239Z,16.40
2022-09-21T14:36:29.045Z,16.50
2022-09-21T14:39:05.578Z,16.70
2022-09-21T14:41:44.253Z,16.40
2022-09-21T14:44:25.425Z,16.50
2022-09-21T14:47:22.983Z,16.30
2022-09-21T14:50:15.619Z,16.20
2022-09-21T14:53:10.700Z,16.40
2022-09-21T14:56:12.721Z,16.40
2022-09-21T14:59:04.590Z,16.30
2022-09-21T15:01:45.368Z,16.40
2022-09-21T15:04:35.631Z,16.30
2022-09-21T15:07:35.884Z,16.30
2022-09-21T15:10:41.336Z,16.40
2022-09-21T15:13:51.505Z,16.30
2022-09-21T15:16:38.159Z,16.20
2022-09-21T15:19:25.819Z,16.20
2022-09-21T15:21:58.252Z,16.30
2022-09-21T15:24:34.374Z,16.20
2022-09-21T15:27:16.895Z,16.30
2022-09-21T15:29:50.461Z,16.30
2022-09-21T15:32:40.917Z,16.30
2022-09-21T15:35:21.771Z,16.40
2022-09-21T15:37:53.882Z,16.40
2022-09-21T15:40:26.580Z,16.20
2022-09-21T15:43:20.692Z,16.00
2022-09-21T15:45:56.200Z,15.90
2022-09-21T15:48:27.660Z,15.80
2022-09-21T15:51:04.727Z,15.80
2022-09-21T15:53:39.460Z,15.90
2022-09-21T15:56:10.425Z,15.80
2022-09-21T15:58:47.807Z,15.90
2022-09-21T16:01:21.927Z,15.70
2022-09-21T16:04:05.337Z,15.60
2022-09-21T16:06:41.767Z,15.50
2022-09-21T16:09:45.989Z,15.50
2022-09-21T16:12:51.725Z,15.40
2022-09-21T16:15:25.324Z,15.50
2022-09-21T16:18:02.104Z,15.40
2022-09-21T16:20:46.064Z,15.30
2022-09-21T16:23:19.717Z,15.30
2022-09-21T16:26:00.850Z,15.20
2022-09-21T16:28:38.740Z,15.20
2022-09-21T16:31:30.046Z,15.10
2022-09-21T16:34:39.382Z,15.10
2022-09-21T16:37:28.911Z,15.00
2022-09-21T16:40:01.154Z,14.90
2022-09-21T16:42:34.490Z,14.80
2022-09-21T16:45:06.923Z,14.70
2022-09-21T16:47:41.045Z,14.70
2022-09-21T16:50:19.156Z,14.60
2022-09-21T16:52:52.556Z,14.50
2022-09-21T16:55:26.920Z,14.50
2022-09-21T16:58:00.376Z,14.40
2022-09-21T17:00:34.942Z,14.30
2022-09-21T17:03:07.619Z,14.30
2022-09-21T17:05:37.713Z,14.30
2022-09-21T17:08:07.921Z,14.20
2022-09-21T17:10:45.021Z,14.20
2022-09-21T17:13:20.033Z,14.00
2022-09-21T17:15:52.212Z,14.00
2022-09-21T17:18:25.004Z,13.90
2022-09-21T17:20:55.276Z,13.90
2022-09-21T17:23:29.318Z,13.80
2022-09-21T17:25:59.380Z,13.80
2022-09-21T17:28:30.260Z,13.70
2022-09-21T17:31:01.028Z,13.70
2022-09-21T17:33:33.861Z,13.70
2022-09-21T17:36:06.758Z,13.60
2022-09-21T17:38:37.955Z,13.50
2022-09-21T17:41:18.248Z,13.50
2022-09-21T17:44:01.423Z,13.40
2022-09-21T17:46:43.878Z,13.30
2022-09-21T17:49:17.631Z,13.20
2022-09-21T17:52:00.905Z,13.10
2022-09-21T17:54:31.872Z,13.00
2022-09-21T17:57:10.610Z,13.00
2022-09-21T17:59:42.409Z,12.90
2022-09-21T18:02:25.015Z,12.80
2022-09-21T18:05:12.843Z,12.70
2022-09-21T18:07:44.072Z,12.60
2022-09-21T18:10:16.924Z,12.50
2022-09-21T18:13:07.351Z,12.50
2022-09-21T18:15:53.114Z,12.40
2022-09-21T18:18:38.354Z,12.30
2022-09-21T18:21:18.964Z,12.30
2022-09-21T18:24:26.414Z,12.20
2022-09-21T18:27:01.914Z,12.10
2022-09-21T18:29:41.122Z,11.90
2022-09-21T18:32:41.185Z,12.00
2022-09-21T18:35:32.448Z,12.10
2022-09-21T18:38:23.885Z,12.00
2022-09-21T18:41:12.323Z,12.00
2022-09-21T18:44:08.134Z,11.90
2022-09-21T18:46:52.001Z,11.80
2022-09-21T18:49:49.688Z,11.80
2022-09-21T18:52:37.396Z,11.70
2022-09-21T18:55:25.224Z,11.70
2022-09-21T18:57:57.384Z,11.60
2022-09-21T19:00:31.621Z,11.50
2022-09-21T19:03:17.151Z,11.40
2022-09-21T19:06:19.365Z,11.40
2022-09-21T19:09:15.258Z,11.40
2022-09-21T19:11:56.318Z,11.30
2022-09-21T19:14:39.090Z,11.20
2022-09-21T19:17:23.652Z,11.20
2022-09-21T19:20:10.927Z,11.20
2022-09-21T19:22:52.210Z,11.10
2022-09-21T19:25:31.243Z,11.00
2022-09-21T19:28:13.184Z,10.90
2022-09-21T19:30:44.933Z,10.90
2022-09-21T19:33:48.315Z,10.90
2022-09-21T19:36:17.208Z,10.80
2022-09-21T19:38:48.194Z,10.70
2022-09-21T19:41:40.855Z,10.70
2022-09-21T19:44:29.833Z,10.60
2022-09-21T19:47:09.271Z,10.60
2022-09-21T19:49:50.511Z,10.60
2022-09-21T19:52:27.158Z,10.50
2022-09-21T19:55:10.887Z,10.50
2022-09-21T19:58:09.442Z,10.50
2022-09-21T20:00:43.818Z,10.40
2022-09-21T20:03:22.224Z,10.40
2022-09-21T20:05:59.980Z,10.30
2022-09-21T20:08:35.270Z,10.30
2022-09-21T20:11:16.307Z,10.20
2022-09-21T20:14:07.989Z,10.10
2022-09-21T20:16:53.102Z,10.10
2022-09-21T20:19:49.435Z,10.10
2022-09-21T20:22:32.668Z,10.10
2022-09-21T20:25:11.842Z,10.00
2022-09-21T20:27:47.864Z,10.00
2022-09-21T20:30:21.204Z,10.10
2022-09-21T20:32:59.151Z,10.30
2022-09-21T20:35:33.546Z,10.20
2022-09-21T20:38:03.948Z,10.10
2022-09-21T20:40:34.944Z,10.10
2022-09-21T20:43:05.407Z,10.10
2022-09-21T20:45:35.660Z,10.10
2022-09-21T20:48:15.878Z,10.10
2022-09-21T20:50:48.964Z,10.10
2022-09-21T20:53:19.775Z,10.10
2022-09-21T20:55:57.443Z,10.10
2022-09-21T20:58:27.932Z,10.10
2022-09-21T21:00:59.260Z,10.10
2022-09-21T21:03:32.142Z,10.10
2022-09-21T21:06:12.525Z,10.10
2022-09-21T21:08:43.314Z,10.10
2022-09-21T21:11:14.442Z,10.10
2022-09-21T21:13:44.808Z,10.20
2022-09-21T21:16:14.944Z,10.20
2022-09-21T21:18:47.756Z,10.20
2022-09-21T21:21:17.913Z,10.20
2022-09-21T21:24:04.892Z,10.20
2022-09-21T21:27:00.065Z,10.20
2022-09-21T21:29:25.655Z,10.10
2022-09-21T21:31:55.967Z,10.10
2022-09-21T21:34:29.051Z,10.10
2022-09-21T21:36:59.225Z,10.10
2022-09-21T21:39:30.616Z,10.20
2022-09-21T21:42:01.034Z,10.20
2022-09-21T21:44:31.596Z,10.20
2022-09-21T21:47:20.895Z,10.20
2022-09-21T21:49:54.660Z,10.30
2022-09-21T21:52:24.755Z,10.20
2022-09-21T21:54:54.980Z,10.20
2022-09-21T21:57:25.182Z,10.30
2022-09-21T21:59:55.421Z,10.20
2022-09-21T22:02:25.535Z,10.20
2022-09-21T22:04:58.402Z,10.20
2022-09-21T22:07:28.566Z,10.20
2022-09-21T22:09:58.784Z,10.20
2022-09-21T22:12:28.993Z,10.20
2022-09-21T22:14:59.082Z,10.30
2022-09-21T22:17:29.224Z,10.30
2022-09-21T22:20:02.106Z,10.30
2022-09-21T22:22:32.289Z,10.30
2022-09-21T22:25:03.253Z,10.30
2022-09-21T22:27:33.514Z,10.30
2022-09-21T22:30:03.703Z,10.30
2022-09-21T22:32:33.958Z,10.30
2022-09-21T22:35:07.426Z,10.30
2022-09-21T22:37:37.661Z,10.20
2022-09-21T22:40:09.417Z,10.10
2022-09-21T22:42:39.800Z,10.10
2022-09-21T22:45:11.028Z,10.10
2022-09-21T22:47:41.707Z,10.10
2022-09-21T22:50:14.664Z,10.10
2022-09-21T22:52:45.296Z,10.10
2022-09-21T22:55:15.388Z,10.10
2022-09-21T22:57:45.409Z,10.10
2022-09-21T23:00:18.191Z,10.10
2022-09-21T23:02:48.384Z,10.10
2022-09-21T23:05:21.196Z,10.10
2022-09-21T23:07:54.883Z,10.00
2022-09-21T23:10:27.799Z,10.00
2022-09-21T23:12:58.255Z,10.00
2022-09-21T23:15:28.534Z,10.00
2022-09-21T23:17:58.674Z,10.00
2022-09-21T23:20:31.496Z,10.00
2022-09-21T23:23:01.600Z,10.00
2022-09-21T23:25:32.247Z,10.00
2022-09-21T23:28:02.325Z,10.10
2022-09-21T23:30:32.474Z,10.10
2022-09-21T23:33:02.845Z,10.10
2022-09-21T23:35:35.759Z,10.10
2022-09-21T23:38:05.986Z,10.10
2022-09-21T23:40:36.251Z,10.10
2022-09-21T23:43:08.642Z,10.10
2022-09-21T23:45:38.865Z,10.10
2022-09-21T23:48:08.948Z,10.10
2022-09-21T23:50:41.599Z,10.10
2022-09-21T23:53:11.785Z,10.00
2022-09-21T23:55:42.320Z,10.00
2022-09-21T23:58:12.407Z,10.00
